createdAt,value
2018-07-19T00:00:28.106Z,73.73
2018-07-19T00:03:00.015Z,69.33
2018-07-19T00:05:31.810Z,78.30
2018-07-19T00:08:03.630Z,66.77
2018-07-19T00:10:35.869Z,79.47
2018-07-19T00:13:07.722Z,68.80
2018-07-19T00:15:39.738Z,77.73
2018-07-19T00:18:11.557Z,60.83
2018-07-19T00:20:43.846Z,77.93
2018-07-19T00:23:15.861Z,65.20
2018-07-19T00:25:47.874Z,64.97
2018-07-19T00:28:19.753Z,68.27
2018-07-19T00:30:51.917Z,83.90
2018-07-19T00:33:24.030Z,77.23
2018-07-19T00:35:56.103Z,70.60
2018-07-19T00:38:29.194Z,80.90
2018-07-19T00:41:01.812Z,71.90
2018-07-19T00:43:33.573Z,80.17
2018-07-19T00:46:05.451Z,67.70
2018-07-19T00:48:37.241Z,91.23
2018-07-19T00:51:09.187Z,77.07
2018-07-19T00:53:40.993Z,71.60
2018-07-19T00:56:13.125Z,75.87
2018-07-19T00:58:45.107Z,75.23
2018-07-19T01:01:17.477Z,85.10
2018-07-19T01:03:49.010Z,73.13
2018-07-19T01:06:21.031Z,83.83
2018-07-19T01:08:52.750Z,83.17
2018-07-19T01:11:25.833Z,86.77
2018-07-19T01:13:57.817Z,72.10
2018-07-19T01:16:29.877Z,86.93
2018-07-19T01:19:01.755Z,81.00
2018-07-19T01:21:34.057Z,74.97
2018-07-19T01:24:06.053Z,70.63
2018-07-19T01:26:38.993Z,76.67
2018-07-19T01:29:10.818Z,82.20
2018-07-19T01:31:43.230Z,71.33
2018-07-19T01:34:15.619Z,68.63
2018-07-19T01:36:47.501Z,77.30
2018-07-19T01:39:19.855Z,77.87
2018-07-19T01:42:22.592Z,68.40
2018-07-19T01:44:54.290Z,77.90
2018-07-19T01:47:26.681Z,62.63
2018-07-19T01:49:58.466Z,67.00
2018-07-19T01:52:30.641Z,55.67
2018-07-19T01:55:02.554Z,69.67
2018-07-19T01:57:34.534Z,71.03
2018-07-19T02:00:06.746Z,82.20
2018-07-19T02:02:38.650Z,69.10
2018-07-19T02:05:10.868Z,80.53
2018-07-19T02:07:43.442Z,76.10
2018-07-19T02:10:15.234Z,67.83
2018-07-19T02:12:48.334Z,69.67
2018-07-19T02:15:20.224Z,77.70
2018-07-19T02:17:52.361Z,78.90
2018-07-19T02:20:24.369Z,75.90
2018-07-19T02:22:56.610Z,64.43
2018-07-19T02:25:27.729Z,100.80
2018-07-19T02:27:59.738Z,87.43
2018-07-19T02:30:31.657Z,85.50
2018-07-19T02:33:03.778Z,84.80
2018-07-19T02:35:35.549Z,78.07
2018-07-19T02:38:07.478Z,91.10
2018-07-19T02:40:39.414Z,98.80
2018-07-19T02:43:11.499Z,80.73
2018-07-19T02:45:43.062Z,67.07
2018-07-19T02:48:14.931Z,77.83
2018-07-19T02:50:46.726Z,81.50
2018-07-19T02:53:19.026Z,75.30
2018-07-19T02:55:50.938Z,80.00
2018-07-19T02:58:22.938Z,90.57
2018-07-19T03:00:54.786Z,78.67
2018-07-19T03:03:26.727Z,83.70
2018-07-19T03:05:58.573Z,76.00
2018-07-19T03:08:30.282Z,70.50
2018-07-19T03:11:02.220Z,83.97
2018-07-19T03:13:34.797Z,74.17
2018-07-19T03:16:06.573Z,80.40
2018-07-19T03:18:38.687Z,69.83
2018-07-19T03:21:10.282Z,88.20
2018-07-19T03:23:42.853Z,87.10
2018-07-19T03:26:14.673Z,86.10
2018-07-19T03:28:46.673Z,57.37
2018-07-19T03:31:18.526Z,72.40
2018-07-19T03:33:50.678Z,88.20
2018-07-19T03:36:22.383Z,102.60
2018-07-19T03:38:54.734Z,104.13
2018-07-19T03:41:26.425Z,91.47
2018-07-19T03:43:58.466Z,82.93
2018-07-19T03:46:30.174Z,90.37
2018-07-19T03:49:02.314Z,91.20
2018-07-19T03:51:33.939Z,107.20
2018-07-19T03:54:06.161Z,75.60
2018-07-19T03:56:37.907Z,78.70
2018-07-19T03:59:10.241Z,91.93
2018-07-19T04:01:42.321Z,84.33
2018-07-19T04:04:14.613Z,102.23
2018-07-19T04:06:46.402Z,90.77
2018-07-19T04:09:18.599Z,76.87
2018-07-19T04:11:50.509Z,71.03
2018-07-19T04:14:23.831Z,66.40
2018-07-19T04:16:55.726Z,78.07
2018-07-19T04:19:27.670Z,77.97
2018-07-19T04:21:59.337Z,61.63
2018-07-19T04:24:31.571Z,70.60
2018-07-19T04:27:03.562Z,74.33
2018-07-19T04:29:35.553Z,48.73
2018-07-19T04:32:07.116Z,70.60
2018-07-19T04:34:39.022Z,70.63
2018-07-19T04:37:11.074Z,48.90
2018-07-19T04:39:43.185Z,67.17
2018-07-19T04:42:15.174Z,70.83
2018-07-19T04:44:47.451Z,57.77
2018-07-19T04:47:19.322Z,61.80
2018-07-19T04:49:51.518Z,52.97
2018-07-19T04:52:23.435Z,74.13
2018-07-19T04:54:55.115Z,51.33
2018-07-19T04:57:28.783Z,50.20
2018-07-19T05:00:01.681Z,57.20
2018-07-19T05:02:33.698Z,57.43
2018-07-19T05:05:05.721Z,46.53
2018-07-19T05:07:37.506Z,64.73
2018-07-19T05:10:09.465Z,50.67
2018-07-19T05:12:41.121Z,56.63
2018-07-19T05:15:15.270Z,60.65
2018-07-19T05:17:47.185Z,55.25
2018-07-19T05:20:19.114Z,60.95
2018-07-19T05:22:50.805Z,49.42
2018-07-19T05:25:22.857Z,48.20
2018-07-19T05:27:55.055Z,56.07
2018-07-19T05:30:27.076Z,49.47
2018-07-19T05:32:58.859Z,42.50
2018-07-19T05:35:30.852Z,43.33
2018-07-19T05:38:02.685Z,46.48
2018-07-19T05:40:35.409Z,27.82
2018-07-19T05:43:07.226Z,20.52
2018-07-19T05:45:39.214Z,23.67
2018-07-19T05:48:11.197Z,21.10
2018-07-19T05:50:43.278Z,19.62
2018-07-19T05:53:15.202Z,19.48
2018-07-19T05:55:47.317Z,17.75
2018-07-19T05:58:19.626Z,25.88
2018-07-19T06:00:51.630Z,20.43
2018-07-19T06:03:23.571Z,18.67
2018-07-19T06:05:55.676Z,27.15
2018-07-19T06:08:27.749Z,30.30
2018-07-19T06:10:59.954Z,26.07
2018-07-19T06:13:31.804Z,23.75
2018-07-19T06:16:05.063Z,29.57
2018-07-19T06:18:36.814Z,33.15
2018-07-19T06:21:09.757Z,23.40
2018-07-19T06:23:41.470Z,37.00
2018-07-19T06:26:13.195Z,51.92
2018-07-19T06:28:44.562Z,30.95
2018-07-19T06:31:16.403Z,29.55
2018-07-19T06:33:47.882Z,30.95
2018-07-19T06:36:19.722Z,30.85
2018-07-19T06:38:51.173Z,30.17
2018-07-19T06:41:22.775Z,35.08
2018-07-19T06:43:54.418Z,29.35
2018-07-19T06:46:25.708Z,34.53
2018-07-19T06:48:57.214Z,31.20
2018-07-19T06:51:28.835Z,33.95
2018-07-19T06:54:00.285Z,35.73
2018-07-19T06:56:31.999Z,33.25
2018-07-19T06:59:03.381Z,29.70
2018-07-19T07:01:34.999Z,27.20
2018-07-19T07:04:06.661Z,31.40
2018-07-19T07:06:38.267Z,38.63
2018-07-19T07:09:11.969Z,30.10
2018-07-19T07:11:43.703Z,33.40
2018-07-19T07:14:15.299Z,28.02
2018-07-19T07:16:48.038Z,26.15
2018-07-19T07:19:19.533Z,27.87
2018-07-19T07:21:51.375Z,36.08
2018-07-19T07:24:22.794Z,32.55
2018-07-19T07:26:55.254Z,26.27
2018-07-19T07:29:26.610Z,24.75
2018-07-19T07:31:58.402Z,37.20
2018-07-19T07:34:30.015Z,33.73
2018-07-19T07:37:01.569Z,27.42
2018-07-19T07:39:33.554Z,28.57
2018-07-19T07:42:05.550Z,26.87
2018-07-19T07:44:37.030Z,33.67
2018-07-19T07:47:08.671Z,23.95
2018-07-19T07:49:40.242Z,28.55
2018-07-19T07:52:12.315Z,31.48
2018-07-19T07:54:43.924Z,45.20
2018-07-19T07:57:15.695Z,31.20
2018-07-19T07:59:47.227Z,33.55
2018-07-19T08:02:19.011Z,24.55
2018-07-19T08:04:50.464Z,29.82
2018-07-19T08:07:22.127Z,29.27
2018-07-19T08:09:53.482Z,32.65
2018-07-19T08:12:25.322Z,36.90
2018-07-19T08:14:56.766Z,37.20
2018-07-19T08:17:30.031Z,47.03
2018-07-19T08:20:01.646Z,32.35
2018-07-19T08:22:33.392Z,32.67
2018-07-19T08:25:04.893Z,39.80
2018-07-19T08:27:36.706Z,39.80
2018-07-19T08:30:08.333Z,37.47
2018-07-19T08:32:40.212Z,33.53
2018-07-19T08:35:11.690Z,37.87
2018-07-19T08:37:43.424Z,41.60
2018-07-19T08:40:15.725Z,39.40
2018-07-19T08:42:47.338Z,34.30
2018-07-19T08:45:18.866Z,50.00
2018-07-19T08:47:50.438Z,37.57
2018-07-19T08:50:21.943Z,32.17
2018-07-19T08:52:55.337Z,34.00
2018-07-19T08:55:27.495Z,41.50
2018-07-19T08:57:59.417Z,34.50
2018-07-19T09:00:31.251Z,36.50
2018-07-19T09:03:03.359Z,50.17
2018-07-19T09:05:35.254Z,34.67
2018-07-19T09:08:07.366Z,50.20
2018-07-19T09:10:39.302Z,45.37
2018-07-19T09:13:11.727Z,40.50
2018-07-19T09:15:43.690Z,41.07
2018-07-19T09:18:16.713Z,39.40
2018-07-19T09:20:48.374Z,42.73
2018-07-19T09:23:20.310Z,42.40
2018-07-19T09:25:52.185Z,50.23
2018-07-19T09:28:24.521Z,49.20
2018-07-19T09:30:56.498Z,34.97
2018-07-19T09:33:27.604Z,35.37
2018-07-19T09:35:59.409Z,40.80
2018-07-19T09:38:31.507Z,33.63
2018-07-19T09:41:02.533Z,37.73
2018-07-19T09:43:34.968Z,49.73
2018-07-19T09:46:06.691Z,43.43
2018-07-19T09:48:38.867Z,51.60
2018-07-19T09:51:11.210Z,51.93
2018-07-19T09:53:43.487Z,41.97
2018-07-19T09:56:15.143Z,51.90
2018-07-19T09:58:47.384Z,45.60
2018-07-19T10:01:19.138Z,53.90
2018-07-19T10:03:52.110Z,44.00
2018-07-19T10:06:24.253Z,50.43
2018-07-19T10:08:56.090Z,39.33
2018-07-19T10:11:27.753Z,48.13
2018-07-19T10:14:00.064Z,46.17
2018-07-19T10:16:32.066Z,49.00
2018-07-19T10:19:05.500Z,37.90
2018-07-19T10:21:37.332Z,51.07
2018-07-19T10:24:09.469Z,43.03
2018-07-19T10:26:41.144Z,51.03
2018-07-19T10:29:13.456Z,47.80
2018-07-19T10:31:45.320Z,49.13
2018-07-19T10:34:17.514Z,44.13
2018-07-19T10:36:49.623Z,47.20
2018-07-19T10:39:21.998Z,65.00
2018-07-19T10:41:53.751Z,53.27
2018-07-19T10:44:25.978Z,52.17
2018-07-19T10:46:57.864Z,49.80
2018-07-19T10:49:30.240Z,69.20
2018-07-19T10:52:02.138Z,47.50
2018-07-19T10:54:34.176Z,58.83
2018-07-19T10:57:06.197Z,50.10
2018-07-19T10:59:38.315Z,43.40
2018-07-19T11:02:10.403Z,69.27
2018-07-19T11:04:42.502Z,52.97
2018-07-19T11:07:14.249Z,45.47
2018-07-19T11:09:46.533Z,51.23
2018-07-19T11:12:18.350Z,50.93
2018-07-19T11:14:50.395Z,58.83
2018-07-19T11:17:22.173Z,48.40
2018-07-19T11:19:55.637Z,48.30
2018-07-19T11:22:27.482Z,51.20
2018-07-19T11:24:59.881Z,66.83
2018-07-19T11:27:30.716Z,46.00
2018-07-19T11:30:01.547Z,57.83
2018-07-19T11:32:33.201Z,46.43
2018-07-19T11:35:05.141Z,61.47
2018-07-19T11:37:36.522Z,48.83
2018-07-19T11:40:08.258Z,59.90
2018-07-19T11:42:39.835Z,42.67
2018-07-19T11:45:11.425Z,53.93
2018-07-19T11:47:42.946Z,49.37
2018-07-19T11:50:14.666Z,51.00
2018-07-19T11:52:46.039Z,55.87
2018-07-19T11:55:17.747Z,54.43
2018-07-19T11:57:49.270Z,53.50
2018-07-19T12:00:20.971Z,53.70
2018-07-19T12:02:52.483Z,56.90
2018-07-19T12:05:24.177Z,41.90
2018-07-19T12:07:55.704Z,53.03
2018-07-19T12:10:28.092Z,55.67
2018-07-19T12:12:59.502Z,52.63
2018-07-19T12:15:31.387Z,55.10
2018-07-19T12:18:02.845Z,54.20
2018-07-19T12:20:35.668Z,51.80
2018-07-19T12:23:06.975Z,53.87
2018-07-19T12:25:38.663Z,48.70
2018-07-19T12:28:10.150Z,45.97
2018-07-19T12:30:41.763Z,58.03
2018-07-19T12:33:12.262Z,47.00
2018-07-19T12:35:43.971Z,69.37
2018-07-19T12:38:15.690Z,49.00
2018-07-19T12:40:47.699Z,57.67
2018-07-19T12:43:19.414Z,62.60
2018-07-19T12:45:50.405Z,52.67
2018-07-19T12:48:21.795Z,59.77
2018-07-19T12:50:53.363Z,57.80
2018-07-19T12:53:25.106Z,63.87
2018-07-19T12:55:57.222Z,67.93
2018-07-19T12:58:28.902Z,53.07
2018-07-19T13:01:01.071Z,54.17
2018-07-19T13:03:33.925Z,60.27
2018-07-19T13:06:06.011Z,59.90
2018-07-19T13:08:37.698Z,65.23
2018-07-19T13:11:09.819Z,54.80
2018-07-19T13:13:41.698Z,55.03
2018-07-19T13:16:13.959Z,56.63
2018-07-19T13:18:45.814Z,63.00
2018-07-19T13:21:20.299Z,62.20
2018-07-19T13:23:52.030Z,61.57
2018-07-19T13:26:23.851Z,57.13
2018-07-19T13:28:55.337Z,66.73
2018-07-19T13:31:25.931Z,68.20
2018-07-19T13:33:57.424Z,54.93
2018-07-19T13:36:29.236Z,63.73
2018-07-19T13:39:00.630Z,60.17
2018-07-19T13:41:33.442Z,48.07
2018-07-19T13:44:05.438Z,68.87
2018-07-19T13:46:37.318Z,51.00
2018-07-19T13:49:09.231Z,70.97
2018-07-19T13:51:41.195Z,55.80
2018-07-19T13:54:16.602Z,50.67
2018-07-19T13:56:48.499Z,50.87
2018-07-19T13:59:21.339Z,67.10
2018-07-19T14:01:53.696Z,60.70
2018-07-19T14:04:25.435Z,49.40
2018-07-19T14:06:57.858Z,61.00
2018-07-19T14:09:29.526Z,62.90
2018-07-19T14:12:00.746Z,53.60
2018-07-19T14:14:31.850Z,47.20
2018-07-19T14:17:05.122Z,48.33
2018-07-19T14:19:36.710Z,54.97
2018-07-19T14:22:10.856Z,47.83
2018-07-19T14:24:42.612Z,57.03
2018-07-19T14:27:14.780Z,49.87
2018-07-19T14:29:46.463Z,59.80
2018-07-19T14:32:18.807Z,44.13
2018-07-19T14:34:50.559Z,49.47
2018-07-19T14:37:22.627Z,60.00
2018-07-19T14:39:54.418Z,52.43
2018-07-19T14:42:26.817Z,57.43
2018-07-19T14:44:59.447Z,48.93
2018-07-19T14:47:31.270Z,69.20
2018-07-19T14:50:03.333Z,48.00
2018-07-19T14:52:35.450Z,53.80
2018-07-19T14:55:07.965Z,66.07
2018-07-19T14:57:40.812Z,60.57
2018-07-19T15:00:12.606Z,74.27
2018-07-19T15:02:44.679Z,46.80
2018-07-19T15:05:16.398Z,52.83
2018-07-19T15:07:48.207Z,50.37
2018-07-19T15:10:20.023Z,44.60
2018-07-19T15:12:52.174Z,52.47
2018-07-19T15:15:24.107Z,49.00
2018-07-19T15:17:56.291Z,44.17
2018-07-19T15:20:28.290Z,51.80
2018-07-19T15:23:01.004Z,48.67
2018-07-19T15:25:32.680Z,55.70
2018-07-19T15:28:04.836Z,48.50
2018-07-19T15:30:35.760Z,51.37
2018-07-19T15:33:06.803Z,53.40
2018-07-19T15:35:38.404Z,58.17
2018-07-19T15:38:10.282Z,60.90
2018-07-19T15:40:42.668Z,45.30
2018-07-19T15:43:14.670Z,57.47
2018-07-19T15:45:46.359Z,40.43
2018-07-19T15:48:18.723Z,44.67
2018-07-19T15:50:50.379Z,69.13
2018-07-19T15:53:22.301Z,49.17
2018-07-19T15:55:54.250Z,58.43
2018-07-19T15:58:26.603Z,62.63
2018-07-19T16:00:58.391Z,54.13
2018-07-19T16:03:30.494Z,52.83
2018-07-19T16:06:02.273Z,59.53
2018-07-19T16:08:34.044Z,57.47
2018-07-19T16:11:05.725Z,56.00
2018-07-19T16:13:37.669Z,51.60
2018-07-19T16:16:10.388Z,49.90
2018-07-19T16:18:42.665Z,49.37
2018-07-19T16:21:14.386Z,49.67
2018-07-19T16:23:47.101Z,62.70
2018-07-19T16:26:18.090Z,57.47
2018-07-19T16:28:50.303Z,60.73
2018-07-19T16:31:22.166Z,56.73
2018-07-19T16:33:54.220Z,48.30
2018-07-19T16:36:26.098Z,37.27
2018-07-19T16:38:58.382Z,50.87
2018-07-19T16:41:29.261Z,48.53
2018-07-19T16:44:01.174Z,44.70
2018-07-19T16:46:33.092Z,50.50
2018-07-19T16:49:05.243Z,43.00
2018-07-19T16:51:37.077Z,46.53
2018-07-19T16:54:09.039Z,63.17
2018-07-19T16:56:40.642Z,46.43
2018-07-19T16:59:12.728Z,52.10
2018-07-19T17:01:44.339Z,57.67
2018-07-19T17:04:16.414Z,59.33
2018-07-19T17:06:48.370Z,50.80
2018-07-19T17:09:20.364Z,48.87
2018-07-19T17:11:52.220Z,61.10
2018-07-19T17:14:24.293Z,48.77
2018-07-19T17:16:56.915Z,45.57
2018-07-19T17:19:28.858Z,51.33
2018-07-19T17:22:00.721Z,56.47
2018-07-19T17:24:33.148Z,46.83
2018-07-19T17:27:05.048Z,49.67
2018-07-19T17:29:37.259Z,51.27
2018-07-19T17:32:09.098Z,58.93
2018-07-19T17:34:41.312Z,45.30
2018-07-19T17:37:13.184Z,60.43
2018-07-19T17:39:45.038Z,55.60
2018-07-19T17:42:16.659Z,44.43
2018-07-19T17:44:48.503Z,45.07
2018-07-19T17:47:20.205Z,61.80
2018-07-19T17:49:52.202Z,65.60
2018-07-19T17:52:24.047Z,49.67
2018-07-19T17:54:56.166Z,73.27
2018-07-19T17:57:27.901Z,54.23
2018-07-19T17:59:59.627Z,62.17
2018-07-19T18:02:31.491Z,58.30
2018-07-19T18:05:03.647Z,71.70
2018-07-19T18:07:35.414Z,79.90
2018-07-19T18:10:07.511Z,66.97
2018-07-19T18:12:39.310Z,73.13
2018-07-19T18:15:11.083Z,68.67
2018-07-19T18:17:42.725Z,73.17
2018-07-19T18:20:14.739Z,89.53
2018-07-19T18:22:46.482Z,77.80
2018-07-19T18:25:19.323Z,73.33
2018-07-19T18:27:51.073Z,71.87
2018-07-19T18:30:22.962Z,55.97
2018-07-19T18:32:54.743Z,60.10
2018-07-19T18:35:26.860Z,80.60
2018-07-19T18:37:58.650Z,64.10
2018-07-19T18:40:30.438Z,53.67
2018-07-19T18:43:02.122Z,61.73
2018-07-19T18:45:34.131Z,51.10
2018-07-19T18:48:05.890Z,58.43
2018-07-19T18:50:38.422Z,46.80
2018-07-19T18:53:10.198Z,49.73
2018-07-19T18:55:42.505Z,48.57
2018-07-19T18:58:14.357Z,60.27
2018-07-19T19:00:46.614Z,59.10
2018-07-19T19:03:18.438Z,64.63
2018-07-19T19:05:50.531Z,52.53
2018-07-19T19:08:22.635Z,53.13
2018-07-19T19:10:54.386Z,61.03
2018-07-19T19:13:26.215Z,52.80
2018-07-19T19:15:58.406Z,61.10
2018-07-19T19:18:30.087Z,60.77
2018-07-19T19:21:02.027Z,55.70
2018-07-19T19:23:33.826Z,53.57
2018-07-19T19:26:07.179Z,40.10
2018-07-19T19:28:38.826Z,55.10
2018-07-19T19:31:10.691Z,50.00
2018-07-19T19:33:42.363Z,53.67
2018-07-19T19:36:14.506Z,57.57
2018-07-19T19:38:46.352Z,55.27
2018-07-19T19:41:18.446Z,62.70
2018-07-19T19:43:50.338Z,68.70
2018-07-19T19:46:22.486Z,47.87
2018-07-19T19:48:54.256Z,61.93
2018-07-19T19:51:26.114Z,50.20
2018-07-19T19:53:57.774Z,54.37
2018-07-19T19:56:29.775Z,52.03
2018-07-19T19:59:01.575Z,48.80
2018-07-19T20:01:34.098Z,57.13
2018-07-19T20:04:05.942Z,65.17
2018-07-19T20:06:38.093Z,47.00
2018-07-19T20:09:11.865Z,47.90
2018-07-19T20:11:43.131Z,77.37
2018-07-19T20:14:14.661Z,49.87
2018-07-19T20:16:46.535Z,62.20
2018-07-19T20:19:18.278Z,59.50
2018-07-19T20:21:50.266Z,48.50
2018-07-19T20:24:22.074Z,61.27
2018-07-19T20:26:55.998Z,56.10
2018-07-19T20:29:27.978Z,55.70
2018-07-19T20:32:00.381Z,62.83
2018-07-19T20:34:32.177Z,49.00
2018-07-19T20:37:04.315Z,56.80
2018-07-19T20:39:36.209Z,47.20
2018-07-19T20:42:08.262Z,54.93
2018-07-19T20:44:40.275Z,56.93
2018-07-19T20:47:12.513Z,48.30
2018-07-19T20:49:44.363Z,53.63
2018-07-19T20:52:16.667Z,50.53
2018-07-19T20:54:48.538Z,48.77
2018-07-19T20:57:20.733Z,57.90
2018-07-19T20:59:52.771Z,49.93
2018-07-19T21:02:24.531Z,44.60
2018-07-19T21:04:56.318Z,51.53
2018-07-19T21:07:28.265Z,48.07
2018-07-19T21:09:59.922Z,49.70
2018-07-19T21:12:31.738Z,52.57
2018-07-19T21:15:03.470Z,62.67
2018-07-19T21:17:35.566Z,52.10
2018-07-19T21:20:07.690Z,51.37
2018-07-19T21:22:43.842Z,51.60
2018-07-19T21:25:15.683Z,52.97
2018-07-19T21:27:48.408Z,45.43
2018-07-19T21:30:20.226Z,52.80
2018-07-19T21:32:52.519Z,56.57
2018-07-19T21:35:24.257Z,42.63
2018-07-19T21:37:56.364Z,59.17
2018-07-19T21:40:28.102Z,44.87
2018-07-19T21:43:00.003Z,55.33
2018-07-19T21:45:31.509Z,44.23
2018-07-19T21:48:03.549Z,51.77
2018-07-19T21:50:35.371Z,51.00
2018-07-19T21:53:07.363Z,46.93
2018-07-19T21:55:39.320Z,57.37
2018-07-19T21:58:10.440Z,44.20
2018-07-19T22:00:47.035Z,40.33
2018-07-19T22:03:19.116Z,52.17
2018-07-19T22:05:51.047Z,46.50
2018-07-19T22:08:23.351Z,54.00
2018-07-19T22:10:55.111Z,43.80
2018-07-19T22:13:27.141Z,52.20
2018-07-19T22:15:59.479Z,53.07
2018-07-19T22:18:31.547Z,57.93
2018-07-19T22:21:03.442Z,34.70
2018-07-19T22:23:35.139Z,46.43
2018-07-19T22:26:06.856Z,46.33
2018-07-19T22:28:39.981Z,57.77
2018-07-19T22:31:11.827Z,50.20
2018-07-19T22:33:43.865Z,54.13
2018-07-19T22:36:15.858Z,47.83
2018-07-19T22:38:47.731Z,51.80
2018-07-19T22:41:19.360Z,44.07
2018-07-19T22:43:51.186Z,52.53
2018-07-19T22:46:23.002Z,38.50
2018-07-19T22:48:57.101Z,47.23
2018-07-19T22:51:28.837Z,49.67
2018-07-19T22:54:00.814Z,57.23
2018-07-19T22:56:32.678Z,53.57
2018-07-19T22:59:04.521Z,60.53
2018-07-19T23:01:36.126Z,39.43
2018-07-19T23:04:08.119Z,40.90
2018-07-19T23:06:39.991Z,49.07
2018-07-19T23:09:11.992Z,61.00
2018-07-19T23:11:43.792Z,52.83
2018-07-19T23:14:15.790Z,57.60
2018-07-19T23:16:47.646Z,55.63
2018-07-19T23:19:19.411Z,61.60
2018-07-19T23:21:50.914Z,49.80
2018-07-19T23:24:22.855Z,44.13
2018-07-19T23:26:54.846Z,48.77
2018-07-19T23:29:27.990Z,53.60
2018-07-19T23:31:59.866Z,74.20
2018-07-19T23:34:31.990Z,50.70
2018-07-19T23:37:13.535Z,46.97
2018-07-19T23:39:50.951Z,43.23
2018-07-19T23:42:40.673Z,49.97
2018-07-19T23:45:19.961Z,49.73
2018-07-19T23:47:52.270Z,52.70
2018-07-19T23:50:24.126Z,45.07
2018-07-19T23:52:55.970Z,39.77
2018-07-19T23:55:28.078Z,45.73
2018-07-19T23:57:58.801Z,47.67
